createdAt,value
2022-10-13T00:02:34.582Z,86.59
2022-10-13T00:08:54.599Z,86.71
2022-10-13T00:15:17.572Z,86.57
2022-10-13T00:21:37.635Z,86.64
2022-10-13T00:28:00.657Z,86.56
2022-10-13T00:34:20.586Z,86.53
2022-10-13T00:40:43.569Z,86.67
2022-10-13T00:47:03.671Z,86.85
2022-10-13T00:53:26.606Z,87.02
2022-10-13T00:59:46.574Z,86.96
2022-10-13T01:06:09.667Z,87.02
2022-10-13T01:12:29.654Z,87.2
2022-10-13T01:18:52.584Z,86.96
2022-10-13T01:25:12.611Z,86.93
2022-10-13T01:31:35.680Z,86.84
2022-10-13T01:37:55.567Z,87.16
2022-10-13T01:44:18.594Z,87.15
2022-10-13T01:50:38.645Z,86.85
2022-10-13T01:57:01.606Z,86.93
2022-10-13T02:03:21.573Z,87.07
2022-10-13T02:09:44.605Z,86.95
2022-10-13T02:16:04.610Z,87.28
2022-10-13T02:22:27.617Z,87.53
2022-10-13T02:28:47.671Z,87.59
2022-10-13T02:35:10.589Z,87.54
2022-10-13T02:41:30.570Z,87.59
2022-10-13T02:47:53.619Z,87.31
2022-10-13T02:54:13.599Z,87.58
2022-10-13T03:00:36.639Z,87.78
2022-10-13T03:06:56.674Z,87.93
2022-10-13T03:13:19.628Z,87.9
2022-10-13T03:19:39.572Z,87.82
2022-10-13T03:37:00.525Z,87.64
2022-10-13T03:43:20.568Z,87.67
2022-10-13T03:49:43.628Z,87.62
2022-10-13T03:56:03.706Z,87.65
2022-10-13T04:02:26.593Z,87.82
2022-10-13T04:08:46.612Z,87.64
2022-10-13T04:15:09.620Z,87.64
2022-10-13T04:21:29.617Z,87.54
2022-10-13T04:27:52.686Z,87.34
2022-10-13T04:34:12.642Z,87.53
2022-10-13T04:40:35.623Z,87.63
2022-10-13T04:46:55.578Z,87.58
2022-10-13T04:53:19.379Z,87.57
2022-10-13T04:59:38.561Z,87.49
2022-10-13T05:06:01.579Z,87.44
2022-10-13T05:12:21.882Z,87.32
2022-10-13T05:18:44.631Z,87.32
2022-10-13T05:25:04.595Z,87.36
2022-10-13T05:31:27.639Z,87.33
2022-10-13T05:37:47.572Z,87.08
2022-10-13T05:44:10.588Z,86.83
2022-10-13T05:50:30.736Z,86.85
2022-10-13T05:56:53.628Z,86.67
2022-10-13T06:03:13.619Z,86.51
2022-10-13T06:09:36.635Z,86.39
2022-10-13T06:15:56.627Z,86.33
2022-10-13T06:22:19.797Z,86.11
2022-10-13T06:28:39.724Z,85.94
2022-10-13T06:35:02.582Z,86.01
2022-10-13T06:41:22.583Z,86
2022-10-13T06:47:45.661Z,86.01
2022-10-13T06:54:05.606Z,85.65
2022-10-13T07:00:28.697Z,85.42
2022-10-13T07:06:48.600Z,85.23
2022-10-13T07:13:11.733Z,85.31
2022-10-13T07:19:32.702Z,85.13
2022-10-13T07:25:55.617Z,85.11
2022-10-13T07:32:15.571Z,85.14
2022-10-13T07:38:38.597Z,84.87
2022-10-13T07:44:58.613Z,84.91
2022-10-13T07:51:21.621Z,84.85
2022-10-13T07:57:41.625Z,84.54
2022-10-13T08:04:04.620Z,84.03
2022-10-13T08:10:24.611Z,84.12
2022-10-13T08:16:48.815Z,83.81
2022-10-13T08:23:07.668Z,83.33
2022-10-13T08:45:54.682Z,82.09
2022-10-13T08:52:17.815Z,81.33
2022-10-13T08:58:37.640Z,80.85
2022-10-13T09:05:00.641Z,80.46
2022-10-13T09:11:20.698Z,79.54
2022-10-13T09:17:43.597Z,79.16
2022-10-13T09:24:03.636Z,78.53
2022-10-13T09:30:26.594Z,79.11
2022-10-13T09:36:46.572Z,78.89
2022-10-13T09:43:09.695Z,78.43
2022-10-13T09:49:29.568Z,78.91
2022-10-13T09:55:52.584Z,78.35
2022-10-13T10:02:14.541Z,78.22
2022-10-13T10:08:51.194Z,77.65
2022-10-13T10:14:55.592Z,77.79
2022-10-13T10:21:18.682Z,77.3
2022-10-13T10:27:39.979Z,77.36
2022-10-13T10:34:01.577Z,77.75
2022-10-13T10:40:21.605Z,78
2022-10-13T10:46:44.601Z,77.39
2022-10-13T10:53:04.571Z,76.83
2022-10-13T10:59:27.609Z,76.01
2022-10-13T11:05:47.585Z,76.09
2022-10-13T11:12:10.613Z,74.62
2022-10-13T11:18:30.600Z,72.88
2022-10-13T11:24:53.567Z,71.16
2022-10-13T11:31:13.592Z,71.05
2022-10-13T11:37:36.741Z,70.12
2022-10-13T11:43:56.579Z,69.48
2022-10-13T11:50:19.588Z,68.93
2022-10-13T11:56:39.938Z,68.79
2022-10-13T12:03:02.593Z,70.31
2022-10-13T12:09:22.573Z,69.08
2022-10-13T12:15:45.615Z,68.91
2022-10-13T12:22:05.577Z,69.75
2022-10-13T12:28:28.645Z,70.77
2022-10-13T12:34:48.579Z,70.43
2022-10-13T12:41:11.569Z,70.19
2022-10-13T12:47:31.584Z,69.43
2022-10-13T12:53:54.591Z,69.85
2022-10-13T13:00:14.578Z,70.19
2022-10-13T13:06:37.604Z,71.48
2022-10-13T13:12:57.602Z,69.78
2022-10-13T13:19:20.603Z,70.49
2022-10-13T13:25:40.588Z,71.55
2022-10-13T13:32:03.616Z,72.04
2022-10-13T13:38:23.583Z,72.18
2022-10-13T13:44:46.566Z,74
2022-10-13T14:07:13.594Z,75.54
2022-10-13T14:13:36.584Z,75.74
2022-10-13T14:19:56.602Z,76.41
2022-10-13T14:26:19.615Z,77.75
2022-10-13T14:32:39.568Z,79.28
2022-10-13T14:39:02.595Z,80.17
2022-10-13T14:45:22.625Z,81.48
2022-10-13T14:51:45.637Z,82.6
2022-10-13T14:58:05.590Z,83.22
2022-10-13T15:04:28.601Z,84.07
2022-10-13T15:10:48.600Z,84.6
2022-10-13T15:17:11.564Z,84.56
2022-10-13T15:23:31.623Z,84.74
2022-10-13T15:29:54.574Z,84.86
2022-10-13T15:36:14.618Z,85.23
2022-10-13T15:42:37.614Z,85.2
2022-10-13T15:48:57.570Z,85.62
2022-10-13T15:55:20.604Z,85.97
2022-10-13T16:01:40.638Z,86.09
2022-10-13T16:08:03.565Z,86.21
2022-10-13T16:14:23.602Z,86.56
2022-10-13T16:20:46.630Z,86.81
2022-10-13T16:27:06.686Z,86.99
2022-10-13T16:33:29.557Z,87.2
2022-10-13T16:39:51.855Z,87.39
2022-10-13T16:46:12.616Z,87.54
2022-10-13T16:52:32.650Z,87.72
2022-10-13T16:58:55.624Z,87.61
2022-10-13T17:05:15.573Z,87.86
2022-10-13T17:11:38.618Z,88.13
2022-10-13T17:17:58.617Z,87.86
2022-10-13T17:24:21.565Z,87.87
2022-10-13T17:30:41.607Z,87.86
2022-10-13T17:37:04.623Z,88.05
2022-10-13T17:43:24.596Z,87.93
2022-10-13T17:49:47.587Z,87.45
2022-10-13T17:56:07.666Z,87.5
2022-10-13T18:02:30.612Z,87.4
2022-10-13T18:08:50.702Z,87.1
2022-10-13T18:15:13.572Z,87.08
2022-10-13T18:21:33.594Z,87.32
2022-10-13T18:27:56.573Z,86.76
2022-10-13T18:34:16.626Z,86.53
2022-10-13T18:40:39.589Z,86.24
2022-10-13T18:46:59.591Z,85.78
2022-10-13T18:53:22.613Z,85.49
2022-10-13T19:16:11.099Z,83.57
2022-10-13T19:22:30.568Z,83.4
2022-10-13T19:28:53.645Z,82.46
2022-10-13T19:35:13.608Z,82.76
2022-10-13T19:41:36.629Z,81.93
2022-10-13T19:47:56.560Z,81.54
2022-10-13T19:54:19.609Z,81.57
2022-10-13T20:00:39.693Z,82.39
2022-10-13T20:07:02.571Z,82.75
2022-10-13T20:13:22.642Z,82.6
2022-10-13T20:19:45.557Z,83.31
2022-10-13T20:26:05.567Z,83.65
2022-10-13T20:32:28.601Z,82.06
2022-10-13T20:38:48.572Z,83.01
2022-10-13T20:45:11.602Z,83.56
2022-10-13T20:51:31.867Z,83.77
2022-10-13T20:57:54.584Z,83.79
2022-10-13T21:04:14.592Z,83.31
2022-10-13T21:10:37.619Z,84.59
2022-10-13T21:16:57.624Z,85.19
2022-10-13T21:23:20.600Z,85.62
2022-10-13T21:29:40.584Z,85.67
2022-10-13T21:36:03.614Z,85.96
2022-10-13T21:42:23.584Z,86.21
2022-10-13T21:48:46.607Z,86
2022-10-13T21:55:06.590Z,86.19
2022-10-13T22:19:33.578Z,85.89
2022-10-13T22:25:53.576Z,85.91
2022-10-13T22:32:16.561Z,85.98
2022-10-13T22:38:36.608Z,85.93
2022-10-13T22:44:59.588Z,86.07
2022-10-13T22:51:19.602Z,86.62
2022-10-13T22:57:42.610Z,87.01
2022-10-13T23:04:02.593Z,87.24
2022-10-13T23:10:25.593Z,87.4
2022-10-13T23:16:45.592Z,87.7
2022-10-13T23:23:08.616Z,87.89
2022-10-13T23:29:28.574Z,88
2022-10-13T23:35:51.619Z,88.23
2022-10-13T23:42:11.590Z,88.37
2022-10-13T23:48:34.646Z,88.63
2022-10-13T23:54:54.600Z,88.99
